Time;durP1;ratioP1;P1;durP2;ratioP2;P2;SDS_P1;SDS_P2;PMS_P1;PMS_P2;Temp;Humidity;BMP_temperature;BMP_pressure;BME280_temperature;BME280_humidity;BME280_pressure;Samples;Min_cycle;Max_cycle;Signal;HPM_P1;HPM_P2
2022/12/12 00:00:04;;;;;;;36.07;25.03;;;1.90;99.90;;;;;;5093307;28;20497;-72
2022/12/12 00:02:29;;;;;;;31.37;22.50;;;2.00;99.90;;;;;;5094893;28;20452;-73
2022/12/12 00:04:56;;;;;;;31.30;22.50;;;1.90;99.90;;;;;;5094600;28;20490;-73
2022/12/12 00:07:21;;;;;;;33.20;24.13;;;1.90;99.90;;;;;;5098039;28;20671;-73
2022/12/12 00:09:47;;;;;;;31.37;22.50;;;1.90;99.90;;;;;;5104014;28;20446;-72
2022/12/12 00:12:12;;;;;;;28.60;22.20;;;1.90;99.90;;;;;;5107286;28;20240;-72
2022/12/12 00:14:38;;;;;;;30.37;21.87;;;1.90;99.90;;;;;;5106614;28;20165;-72
2022/12/12 00:17:04;;;;;;;32.03;20.40;;;1.90;99.90;;;;;;5104182;28;20182;-72
2022/12/12 00:19:29;;;;;;;28.57;21.30;;;1.80;99.90;;;;;;5112106;28;20179;-72
2022/12/12 00:21:55;;;;;;;46.27;29.80;;;1.70;99.90;;;;;;5105800;28;20172;-72
2022/12/12 00:24:21;;;;;;;39.97;29.30;;;1.60;99.90;;;;;;5100962;28;20176;-72
2022/12/12 00:26:46;;;;;;;33.20;22.03;;;1.60;99.90;;;;;;5100194;28;20205;-73
2022/12/12 00:29:12;;;;;;;31.17;21.23;;;1.60;99.90;;;;;;5099682;28;20658;-73
2022/12/12 00:31:38;;;;;;;28.60;22.07;;;1.60;99.90;;;;;;5100597;28;20165;-72
2022/12/12 00:34:03;;;;;;;28.93;20.70;;;1.50;99.90;;;;;;5103638;28;20200;-73
2022/12/12 00:36:30;;;;;;;31.77;20.80;;;1.40;99.90;;;;;;5101081;28;20299;-72
2022/12/12 00:38:56;;;;;;;25.10;18.87;;;1.40;99.90;;;;;;5099803;28;20246;-73
2022/12/12 00:41:22;;;;;;;27.83;20.57;;;1.40;99.90;;;;;;5098531;28;20422;-73
2022/12/12 00:43:48;;;;;;;27.37;20.27;;;1.50;99.90;;;;;;5098458;28;20464;-72
2022/12/12 00:46:20;;;;;;;28.57;19.90;;;1.50;99.90;;;;;;5100004;28;20781;-72
2022/12/12 00:48:46;;;;;;;30.47;21.90;;;1.50;99.90;;;;;;5101242;28;20447;-73
2022/12/12 00:51:18;;;;;;;28.37;18.70;;;1.40;99.90;;;;;;5100904;28;20482;-73
2022/12/12 00:53:44;;;;;;;23.73;17.33;;;1.30;99.90;;;;;;5095023;28;20256;-73
2022/12/12 00:56:10;;;;;;;30.30;21.20;;;1.30;99.90;;;;;;5092107;28;20501;-72
2022/12/12 00:58:36;;;;;;;27.03;20.20;;;1.40;99.90;;;;;;5093464;28;20740;-71
2022/12/12 01:01:11;;;;;;;29.53;20.63;;;1.30;99.90;;;;;;5093366;28;20169;-72
2022/12/12 01:03:38;;;;;;;25.70;17.80;;;1.30;99.90;;;;;;5093736;28;20746;-72
2022/12/12 01:06:05;;;;;;;25.20;17.70;;;1.30;99.90;;;;;;5091985;28;20438;-72
2022/12/12 01:08:30;;;;;;;26.33;18.40;;;1.30;99.90;;;;;;5093282;28;20913;-71
2022/12/12 01:10:56;;;;;;;28.23;18.53;;;1.40;99.90;;;;;;5091560;28;20411;-73
2022/12/12 01:13:21;;;;;;;26.83;18.70;;;1.40;99.90;;;;;;5085494;28;20170;-73
2022/12/12 01:15:47;;;;;;;25.90;18.40;;;1.40;99.90;;;;;;5073182;28;20215;-72
2022/12/12 01:18:13;;;;;;;28.73;19.00;;;1.30;99.90;;;;;;5073302;28;20189;-72
2022/12/12 01:20:40;;;;;;;27.03;19.13;;;1.30;99.90;;;;;;5073242;28;20583;-72
2022/12/12 01:23:06;;;;;;;29.93;19.23;;;1.20;99.90;;;;;;5072706;28;20407;-72
2022/12/12 01:25:32;;;;;;;21.77;16.70;;;1.20;99.90;;;;;;5075726;28;20418;-72
2022/12/12 01:27:58;;;;;;;18.60;15.00;;;1.10;99.90;;;;;;5092535;28;20214;-72
2022/12/12 01:30:25;;;;;;;22.20;14.70;;;0.90;99.90;;;;;;5092959;28;20202;-72
2022/12/12 01:32:51;;;;;;;26.30;16.30;;;0.80;99.90;;;;;;5093032;28;20398;-72
2022/12/12 01:35:17;;;;;;;22.77;15.77;;;0.80;99.90;;;;;;5093217;28;20412;-72
2022/12/12 01:37:43;;;;;;;22.93;16.67;;;0.90;99.90;;;;;;5092651;28;20202;-72
2022/12/12 01:40:16;;;;;;;23.20;15.40;;;0.90;99.90;;;;;;5092864;28;20460;-72
2022/12/12 01:42:42;;;;;;;22.50;16.60;;;0.90;99.90;;;;;;5091408;28;20917;-72
2022/12/12 01:45:28;;;;;;;23.17;15.97;;;0.90;99.90;;;;;;5092817;28;20403;-72
2022/12/12 01:47:53;;;;;;;23.80;15.43;;;1.00;99.90;;;;;;5092546;28;20208;-72
2022/12/12 01:50:19;;;;;;;21.57;15.33;;;0.90;99.90;;;;;;5091507;28;20879;-72
2022/12/12 01:52:48;;;;;;;20.20;14.00;;;0.80;99.90;;;;;;5092633;28;20191;-72
2022/12/12 01:55:19;;;;;;;22.67;14.83;;;0.80;99.90;;;;;;5095748;28;20204;-71
2022/12/12 01:57:47;;;;;;;21.73;14.70;;;0.90;99.90;;;;;;5094836;28;20443;-72
2022/12/12 02:00:14;;;;;;;17.40;13.47;;;0.90;99.90;;;;;;5095419;28;20905;-72
2022/12/12 02:02:43;;;;;;;17.90;13.63;;;1.00;99.90;;;;;;5096626;28;20409;-72
2022/12/12 02:05:36;;;;;;;19.47;14.30;;;1.00;99.90;;;;;;5096519;28;20485;-72
2022/12/12 02:08:03;;;;;;;17.00;13.00;;;1.00;99.90;;;;;;5090308;28;20446;-72
2022/12/12 02:10:29;;;;;;;15.60;11.87;;;1.00;99.90;;;;;;5096231;28;20944;-72
2022/12/12 02:13:10;;;;;;;21.20;14.30;;;0.90;99.90;;;;;;5096219;28;20407;-72
2022/12/12 02:15:43;;;;;;;19.80;13.30;;;0.80;99.90;;;;;;5096410;28;20477;-71
2022/12/12 02:18:24;;;;;;;18.13;13.90;;;0.70;99.90;;;;;;5096335;28;20414;-72
2022/12/12 02:21:16;;;;;;;17.83;13.60;;;0.60;99.90;;;;;;5096268;28;20437;-72
2022/12/12 02:23:57;;;;;;;18.40;12.57;;;0.50;99.90;;;;;;5096260;28;20391;-72
2022/12/12 02:26:40;;;;;;;19.20;14.77;;;0.40;99.90;;;;;;5095609;28;20416;-71
2022/12/12 02:29:35;;;;;;;19.00;14.13;;;0.30;99.90;;;;;;5094037;28;20453;-71
2022/12/12 02:32:07;;;;;;;17.40;12.57;;;0.30;99.90;;;;;;5095992;28;20409;-72
2022/12/12 02:34:55;;;;;;;19.00;13.70;;;0.20;99.90;;;;;;5095545;28;20399;-72
2022/12/12 02:37:33;;;;;;;18.73;13.00;;;0.20;99.90;;;;;;5075945;28;20435;-72
2022/12/12 02:40:15;;;;;;;22.50;13.67;;;0.20;99.90;;;;;;5075730;28;20412;-72
2022/12/12 02:42:43;;;;;;;20.10;14.53;;;0.10;99.90;;;;;;5075604;28;20392;-72
2022/12/12 02:45:23;;;;;;;20.80;14.00;;;0.10;99.90;;;;;;5074736;28;21000;-72
2022/12/12 02:47:58;;;;;;;19.20;13.43;;;0.10;99.90;;;;;;5076334;28;20439;-72
2022/12/12 02:50:28;;;;;;;20.53;14.63;;;0.10;99.90;;;;;;5074581;28;20441;-72
2022/12/12 02:52:54;;;;;;;18.63;13.23;;;0.00;99.90;;;;;;5077561;28;20475;-72
2022/12/12 02:55:20;;;;;;;20.00;13.77;;;-0.10;99.90;;;;;;5079133;28;20438;-71
2022/12/12 02:57:47;;;;;;;19.87;15.43;;;-0.20;99.90;;;;;;5084910;28;20437;-71
2022/12/12 03:00:18;;;;;;;23.97;15.93;;;-0.30;99.90;;;;;;5097190;28;20202;-72
2022/12/12 03:09:31;;;;;;;20.93;14.30;;;-0.50;99.90;;;;;;5095508;28;20917;-71
2022/12/12 03:12:40;;;;;;;24.27;16.47;;;-0.40;99.90;;;;;;5095128;28;20384;-72
2022/12/12 03:15:36;;;;;;;24.30;17.03;;;-0.40;99.90;;;;;;5094765;28;20390;-71
2022/12/12 03:18:18;;;;;;;23.80;16.47;;;-0.50;99.90;;;;;;5062863;28;21004;-71
2022/12/12 03:20:48;;;;;;;21.10;16.43;;;-0.60;99.90;;;;;;5091723;28;20403;-72
2022/12/12 03:23:20;;;;;;;21.00;15.13;;;-0.60;99.90;;;;;;5073417;28;20416;-71
2022/12/12 03:25:48;;;;;;;23.20;15.37;;;-0.60;99.90;;;;;;5074860;28;20393;-71
2022/12/12 03:28:27;;;;;;;26.40;17.17;;;-0.60;99.90;;;;;;5081360;28;20833;-70
2022/12/12 03:30:56;;;;;;;21.70;16.07;;;-0.60;99.90;;;;;;5094880;28;20390;-71
2022/12/12 03:33:42;;;;;;;28.63;18.87;;;-0.50;99.90;;;;;;5093570;28;20403;-71
2022/12/12 03:36:22;;;;;;;26.47;18.83;;;-0.50;99.90;;;;;;5095020;28;20383;-71
2022/12/12 03:38:59;;;;;;;27.53;19.00;;;-0.50;99.90;;;;;;5094587;28;20886;-70
2022/12/12 03:41:34;;;;;;;32.50;18.60;;;-0.60;99.90;;;;;;5095223;28;20416;-71
2022/12/12 03:44:10;;;;;;;28.20;18.60;;;-0.60;99.90;;;;;;5094225;28;20401;-71
2022/12/12 03:46:49;;;;;;;28.47;17.40;;;-0.60;99.90;;;;;;5094722;28;20412;-71
2022/12/12 03:49:40;;;;;;;29.57;19.93;;;-0.60;99.90;;;;;;5094801;28;21009;-71
2022/12/12 03:52:12;;;;;;;30.57;20.10;;;-0.60;99.90;;;;;;5092987;28;20432;-71
2022/12/12 03:54:52;;;;;;;26.90;18.87;;;-0.50;99.90;;;;;;5093159;28;20403;-71
2022/12/12 03:57:29;;;;;;;27.40;19.50;;;-0.50;99.90;;;;;;5094627;28;20417;-73
2022/12/12 04:00:05;;;;;;;31.73;21.80;;;-0.50;99.90;;;;;;5073386;28;20900;-71
2022/12/12 04:02:46;;;;;;;27.63;20.47;;;-0.50;99.90;;;;;;5073965;28;20814;-71
2022/12/12 04:05:20;;;;;;;32.07;21.63;;;-0.60;99.90;;;;;;5073117;28;20400;-70
2022/12/12 04:08:07;;;;;;;30.03;21.53;;;-0.70;99.90;;;;;;5074585;28;20424;-72
2022/12/12 04:13:47;;;;;;;31.97;22.70;;;-0.80;99.90;;;;;;5074877;28;20379;-71
2022/12/12 04:16:18;;;;;;;34.17;21.60;;;-0.90;99.90;;;;;;5094281;28;20385;-71
2022/12/12 04:18:57;;;;;;;30.97;19.53;;;-0.80;99.90;;;;;;5094414;28;20384;-71
2022/12/12 04:24:24;;;;;;;32.47;21.90;;;-0.90;99.90;;;;;;5094042;28;20801;-71
2022/12/12 04:27:07;;;;;;;32.30;20.90;;;-0.90;99.90;;;;;;5093378;28;20561;-71
2022/12/12 04:29:41;;;;;;;30.00;21.00;;;-0.90;99.90;;;;;;5075221;28;20448;-71
2022/12/12 04:32:16;;;;;;;27.20;19.60;;;-0.90;99.90;;;;;;5080407;28;20905;-71
2022/12/12 04:34:59;;;;;;;29.80;19.53;;;-0.90;99.90;;;;;;5092308;28;20398;-71
2022/12/12 04:37:31;;;;;;;31.67;21.37;;;-0.80;99.90;;;;;;5093453;28;20461;-70
2022/12/12 04:39:59;;;;;;;30.90;21.80;;;-0.80;99.90;;;;;;5093445;28;20388;-70
2022/12/12 04:42:29;;;;;;;31.17;21.00;;;-0.70;99.90;;;;;;5093674;28;20410;-70
2022/12/12 04:45:07;;;;;;;31.47;21.43;;;-0.60;99.90;;;;;;5091600;28;20405;-70
2022/12/12 04:47:34;;;;;;;35.27;25.17;;;-0.60;99.90;;;;;;5093392;28;20422;-70
2022/12/12 04:50:01;;;;;;;33.33;21.63;;;-0.50;99.90;;;;;;5092032;28;20456;-71
2022/12/12 04:52:30;;;;;;;32.87;23.60;;;-0.40;99.90;;;;;;5092069;28;20430;-71
2022/12/12 04:55:04;;;;;;;32.70;23.27;;;-0.30;99.90;;;;;;5091941;28;20494;-71
2022/12/12 04:57:40;;;;;;;32.97;23.43;;;-0.20;99.90;;;;;;5093146;28;20494;-70
2022/12/12 05:00:07;;;;;;;32.27;23.73;;;-0.10;99.90;;;;;;5092226;28;20940;-71
2022/12/12 05:02:48;;;;;;;39.53;24.70;;;-0.20;99.90;;;;;;5091894;28;20461;-71
2022/12/12 05:05:23;;;;;;;39.20;26.47;;;0.00;99.90;;;;;;5093217;28;20913;-71
2022/12/12 05:07:53;;;;;;;35.07;22.83;;;0.00;99.90;;;;;;5091697;28;20437;-71
2022/12/12 05:10:19;;;;;;;34.97;22.63;;;0.00;99.90;;;;;;5093368;28;20443;-70
2022/12/12 05:12:49;;;;;;;36.33;24.60;;;0.10;99.90;;;;;;5092984;28;20409;-71
2022/12/12 05:15:17;;;;;;;32.27;24.10;;;0.10;99.90;;;;;;5092799;28;20176;-70
2022/12/12 05:18:04;;;;;;;34.83;25.43;;;0.20;99.90;;;;;;5092839;28;20987;-71
2022/12/12 05:20:29;;;;;;;36.50;23.80;;;0.30;99.90;;;;;;5091692;28;20411;-70
2022/12/12 05:22:55;;;;;;;35.60;26.40;;;0.30;99.90;;;;;;5091962;28;20430;-70
2022/12/12 05:25:20;;;;;;;33.17;23.83;;;0.40;99.90;;;;;;5089962;28;20226;-71
2022/12/12 05:27:46;;;;;;;36.67;25.57;;;0.50;99.90;;;;;;5093214;28;20204;-71
2022/12/12 05:30:12;;;;;;;38.00;25.03;;;0.60;99.90;;;;;;5096738;28;20221;-71
2022/12/12 05:32:38;;;;;;;28.80;21.70;;;0.60;99.90;;;;;;5096827;28;20248;-71
2022/12/12 05:35:05;;;;;;;31.53;21.93;;;0.50;99.90;;;;;;5097160;28;20459;-72
2022/12/12 05:37:31;;;;;;;33.30;22.90;;;0.50;99.90;;;;;;5096432;28;20210;-71
2022/12/12 05:39:56;;;;;;;33.40;23.90;;;0.60;99.90;;;;;;5095233;28;20409;-73
2022/12/12 05:42:22;;;;;;;32.30;23.77;;;0.60;99.90;;;;;;5094902;28;20180;-71
2022/12/12 05:44:47;;;;;;;34.63;24.57;;;0.60;99.90;;;;;;5091787;28;20256;-71
2022/12/12 05:47:13;;;;;;;33.23;24.17;;;0.60;99.90;;;;;;5088568;28;20238;-75
2022/12/12 05:49:38;;;;;;;30.20;23.93;;;0.60;99.90;;;;;;5088442;28;20686;-71
2022/12/12 05:52:04;;;;;;;34.77;23.83;;;0.60;99.90;;;;;;5094705;28;20207;-71
2022/12/12 05:54:30;;;;;;;36.90;26.07;;;0.50;99.90;;;;;;5095454;28;20164;-70
2022/12/12 05:56:55;;;;;;;34.87;24.30;;;0.50;99.90;;;;;;5096497;28;20186;-70
2022/12/12 05:59:21;;;;;;;30.53;23.33;;;0.50;99.90;;;;;;5094858;28;20177;-71
2022/12/12 06:01:47;;;;;;;34.20;23.60;;;0.50;99.90;;;;;;5095111;28;20635;-70
2022/12/12 06:04:12;;;;;;;35.40;25.17;;;0.40;99.90;;;;;;5096406;28;20278;-72
2022/12/12 06:06:38;;;;;;;36.10;23.77;;;0.40;99.90;;;;;;5096826;28;20169;-71
2022/12/12 06:09:03;;;;;;;32.50;22.90;;;0.40;99.90;;;;;;5096909;28;20299;-70
2022/12/12 06:11:29;;;;;;;34.00;25.00;;;0.50;99.90;;;;;;5096189;28;20180;-70
2022/12/12 06:13:54;;;;;;;32.70;23.40;;;0.60;99.90;;;;;;5096163;28;20646;-70
2022/12/12 06:16:20;;;;;;;36.27;22.23;;;0.70;99.90;;;;;;5094828;28;20165;-69
2022/12/12 06:18:53;;;;;;;33.30;24.27;;;0.60;99.90;;;;;;5095000;28;20585;-70
2022/12/12 06:21:19;;;;;;;31.60;23.27;;;0.60;99.90;;;;;;5096189;28;20228;-71
2022/12/12 06:23:46;;;;;;;31.80;22.93;;;0.70;99.90;;;;;;5096395;28;20428;-69
2022/12/12 06:26:13;;;;;;;32.57;22.90;;;0.50;99.90;;;;;;5094916;28;20407;-70
2022/12/12 06:28:39;;;;;;;37.13;24.63;;;0.70;99.90;;;;;;5094289;28;20446;-70
2022/12/12 06:31:05;;;;;;;30.97;23.03;;;0.60;99.90;;;;;;5095985;28;20456;-70
2022/12/12 06:33:34;;;;;;;35.87;23.30;;;0.70;99.90;;;;;;5096314;28;20757;-70
2022/12/12 06:36:15;;;;;;;33.63;25.13;;;0.70;99.90;;;;;;5095985;28;20485;-69
2022/12/12 06:38:41;;;;;;;31.60;22.33;;;0.70;99.90;;;;;;5095964;28;20533;-71
2022/12/12 06:41:12;;;;;;;36.50;25.50;;;0.70;99.90;;;;;;5093643;28;20499;-70
2022/12/12 06:43:39;;;;;;;32.13;22.70;;;0.70;99.90;;;;;;5096056;28;20403;-70
2022/12/12 06:46:07;;;;;;;32.57;23.73;;;0.70;99.90;;;;;;5094941;28;20896;-71
2022/12/12 06:48:34;;;;;;;36.90;26.40;;;0.80;99.90;;;;;;5095157;28;20518;-70
2022/12/12 06:51:04;;;;;;;29.03;22.63;;;0.80;99.90;;;;;;5095400;28;20896;-71
2022/12/12 06:53:30;;;;;;;32.47;21.90;;;0.80;99.90;;;;;;5095445;28;20406;-70
2022/12/12 06:55:56;;;;;;;34.70;24.13;;;0.80;99.90;;;;;;5094170;28;20921;-70
2022/12/12 06:58:21;;;;;;;34.53;28.30;;;0.90;99.90;;;;;;5094422;28;20678;-70
2022/12/12 07:00:53;;;;;;;33.60;26.07;;;0.80;99.90;;;;;;5095241;28;20177;-70
2022/12/12 07:03:19;;;;;;;37.43;27.50;;;0.80;99.90;;;;;;5095393;28;20638;-69
2022/12/12 07:05:46;;;;;;;34.40;23.70;;;0.60;99.90;;;;;;5095420;28;20421;-71
2022/12/12 07:08:15;;;;;;;36.80;27.43;;;0.50;99.90;;;;;;5095414;28;20192;-70
2022/12/12 07:10:41;;;;;;;33.57;24.30;;;0.40;99.90;;;;;;5094801;28;20460;-71
2022/12/12 07:13:06;;;;;;;34.13;24.50;;;0.50;99.90;;;;;;5095061;28;20442;-74
2022/12/12 07:15:32;;;;;;;30.40;23.70;;;0.60;99.90;;;;;;5094846;28;20452;-70
2022/12/12 07:17:58;;;;;;;35.10;25.27;;;0.50;99.90;;;;;;5095023;28;20449;-70
2022/12/12 07:20:23;;;;;;;35.20;24.10;;;0.50;99.90;;;;;;5095242;28;20667;-69
2022/12/12 07:22:49;;;;;;;30.00;20.50;;;0.60;99.90;;;;;;5083659;28;20250;-71
2022/12/12 07:25:15;;;;;;;32.37;22.97;;;0.60;99.90;;;;;;5077307;28;20205;-72
2022/12/12 07:27:40;;;;;;;28.73;22.90;;;0.50;99.90;;;;;;5074578;28;20206;-70
2022/12/12 07:30:07;;;;;;;35.60;25.37;;;0.50;99.90;;;;;;5074895;28;20807;-71
2022/12/12 07:32:33;;;;;;;34.93;23.50;;;0.50;99.90;;;;;;5088903;28;20165;-70
2022/12/12 07:34:59;;;;;;;36.63;26.60;;;0.60;99.90;;;;;;5086003;28;20479;-70
2022/12/12 07:37:25;;;;;;;35.70;26.00;;;0.40;99.90;;;;;;5083451;28;20633;-70
2022/12/12 07:39:50;;;;;;;35.30;25.67;;;0.10;99.90;;;;;;5087714;28;20439;-70
2022/12/12 07:42:16;;;;;;;34.50;25.73;;;0.20;99.90;;;;;;5086360;28;20409;-71
2022/12/12 07:44:42;;;;;;;30.47;22.50;;;0.30;99.90;;;;;;5082073;28;20205;-71
2022/12/12 07:47:07;;;;;;;31.17;24.43;;;0.10;99.90;;;;;;5075363;28;20220;-71
2022/12/12 07:49:33;;;;;;;35.93;24.47;;;0.10;99.90;;;;;;5074921;28;20211;-72
2022/12/12 07:51:59;;;;;;;30.47;23.53;;;0.20;99.90;;;;;;5074547;28;20528;-72
2022/12/12 07:54:24;;;;;;;32.77;24.13;;;0.30;99.90;;;;;;5074735;28;20176;-71
2022/12/12 07:56:50;;;;;;;34.03;24.70;;;0.30;99.90;;;;;;5073420;28;20279;-70
2022/12/12 07:59:16;;;;;;;30.87;23.23;;;0.30;99.90;;;;;;5083721;28;20175;-72
2022/12/12 08:01:42;;;;;;;30.57;21.63;;;0.50;99.90;;;;;;5093220;28;20265;-70
2022/12/12 08:04:07;;;;;;;33.07;23.60;;;0.50;99.90;;;;;;5094294;28;20930;-70
2022/12/12 08:06:33;;;;;;;33.07;24.30;;;0.70;99.90;;;;;;5094197;28;20699;-70
2022/12/12 08:08:58;;;;;;;38.10;25.70;;;0.80;99.90;;;;;;5087891;28;20709;-70
2022/12/12 08:11:25;;;;;;;36.37;24.40;;;0.80;99.90;;;;;;5080252;28;20207;-70
2022/12/12 08:13:51;;;;;;;27.77;22.80;;;0.80;99.90;;;;;;5080585;28;20164;-71
2022/12/12 08:16:19;;;;;;;32.67;24.30;;;0.60;99.90;;;;;;5084103;28;20485;-69
2022/12/12 08:18:45;;;;;;;34.00;24.13;;;0.70;99.90;;;;;;5081202;28;20404;-69
2022/12/12 08:21:13;;;;;;;27.90;22.53;;;0.70;99.90;;;;;;5081742;28;20394;-71
2022/12/12 08:23:40;;;;;;;32.13;23.40;;;0.80;99.90;;;;;;5079791;28;20408;-71
2022/12/12 08:26:08;;;;;;;31.60;23.80;;;0.90;99.90;;;;;;5074547;28;20913;-70
2022/12/12 08:28:34;;;;;;;29.73;22.17;;;1.00;99.90;;;;;;5073084;28;20455;-71
2022/12/12 08:31:00;;;;;;;28.50;20.97;;;0.80;99.90;;;;;;5084652;28;20416;-70
2022/12/12 08:33:26;;;;;;;30.40;24.33;;;0.40;99.90;;;;;;5085315;28;21010;-72
2022/12/12 08:35:51;;;;;;;34.90;24.40;;;0.70;99.90;;;;;;5072155;28;20170;-70
2022/12/12 08:38:17;;;;;;;28.00;22.43;;;0.70;99.90;;;;;;5074765;28;20798;-71
2022/12/12 08:40:42;;;;;;;30.30;22.17;;;0.60;99.90;;;;;;5072567;28;20216;-71
2022/12/12 08:43:09;;;;;;;34.90;25.40;;;0.70;99.90;;;;;;5072458;28;20231;-72
2022/12/12 08:45:39;;;;;;;30.30;22.00;;;0.90;99.90;;;;;;5072753;28;20173;-71
2022/12/12 08:48:05;;;;;;;29.23;22.80;;;0.80;99.90;;;;;;5072334;28;20439;-70
2022/12/12 08:50:32;;;;;;;32.53;22.13;;;1.00;99.90;;;;;;5073540;28;20444;-70
2022/12/12 08:52:58;;;;;;;36.83;25.90;;;0.80;99.90;;;;;;5072432;28;20412;-71
2022/12/12 08:55:23;;;;;;;27.53;22.40;;;0.70;99.90;;;;;;5073173;28;20913;-71
2022/12/12 08:57:49;;;;;;;29.80;22.87;;;1.00;99.90;;;;;;5073146;28;20719;-71
2022/12/12 09:00:15;;;;;;;28.77;21.63;;;1.30;99.90;;;;;;5078033;28;20209;-72
2022/12/12 09:02:41;;;;;;;32.33;22.50;;;1.10;99.90;;;;;;5091284;28;20185;-71
2022/12/12 09:05:07;;;;;;;33.10;23.23;;;0.70;99.90;;;;;;5093579;28;20895;-70
2022/12/12 09:07:32;;;;;;;32.33;21.57;;;0.90;99.90;;;;;;5093575;28;20498;-70
2022/12/12 09:09:58;;;;;;;31.20;22.67;;;1.10;99.90;;;;;;5093265;28;20445;-71
2022/12/12 09:12:24;;;;;;;30.83;23.23;;;1.20;99.90;;;;;;5093523;28;20168;-72
2022/12/12 09:14:49;;;;;;;32.13;23.30;;;1.40;99.90;;;;;;5093228;28;20171;-71
2022/12/12 09:17:15;;;;;;;28.90;21.30;;;1.30;99.90;;;;;;5093099;28;20315;-72
2022/12/12 09:19:40;;;;;;;26.93;21.33;;;1.40;99.90;;;;;;5093108;28;20175;-70
2022/12/12 09:22:06;;;;;;;34.83;23.00;;;1.30;99.90;;;;;;5093088;28;20184;-71
2022/12/12 09:24:31;;;;;;;31.63;23.27;;;1.20;99.90;;;;;;5093141;28;20173;-71
2022/12/12 09:26:57;;;;;;;27.90;20.30;;;1.20;99.90;;;;;;5093045;28;20215;-70
2022/12/12 09:29:22;;;;;;;28.60;21.13;;;1.10;99.90;;;;;;5090109;22;20231;-68
2022/12/12 09:31:48;;;;;;;28.30;21.83;;;1.30;99.90;;;;;;5052676;28;20163;-68
2022/12/12 09:34:14;;;;;;;29.10;22.40;;;1.50;99.90;;;;;;5053191;28;20574;-68
2022/12/12 09:36:39;;;;;;;29.00;20.87;;;1.70;99.90;;;;;;5053092;28;20173;-68
2022/12/12 09:39:05;;;;;;;31.50;22.20;;;1.50;99.90;;;;;;5037568;28;20669;-69
2022/12/12 09:41:31;;;;;;;29.33;22.00;;;1.60;99.90;;;;;;5015000;28;20642;-68
2022/12/12 09:43:58;;;;;;;30.70;21.37;;;1.80;99.90;;;;;;5032462;28;20251;-68
2022/12/12 09:46:34;;;;;;;26.00;20.60;;;2.00;99.90;;;;;;5014870;28;20174;-68
2022/12/12 09:49:46;;;;;;;24.73;20.47;;;2.10;99.90;;;;;;5032577;28;20461;-68
2022/12/12 09:52:27;;;;;;;26.33;20.40;;;2.20;99.90;;;;;;5026532;28;20426;-69
2022/12/12 09:54:53;;;;;;;29.17;21.43;;;2.30;99.90;;;;;;5032816;28;20378;-68
2022/12/12 09:57:36;;;;;;;23.20;19.30;;;2.00;99.90;;;;;;5032628;28;20401;-68
2022/12/12 10:00:07;;;;;;;26.57;19.47;;;1.90;99.90;;;;;;5032425;28;20148;-68
2022/12/12 10:02:45;;;;;;;28.50;20.50;;;1.90;99.90;;;;;;5040193;28;20762;-68
2022/12/12 10:05:28;;;;;;;26.50;21.10;;;2.20;99.90;;;;;;5034409;28;20921;-69
2022/12/12 10:08:08;;;;;;;26.57;20.67;;;2.40;99.90;;;;;;5052385;28;20490;-69
2022/12/12 10:10:57;;;;;;;23.53;19.33;;;2.40;99.90;;;;;;5052371;28;20785;-68
2022/12/12 10:13:26;;;;;;;29.00;22.20;;;2.20;99.90;;;;;;5052543;28;20387;-69
2022/12/12 10:16:11;;;;;;;27.80;20.07;;;2.10;99.90;;;;;;5054271;28;20409;-69
2022/12/12 10:18:44;;;;;;;31.83;19.90;;;2.30;99.90;;;;;;5055105;28;20424;-68
2022/12/12 10:21:18;;;;;;;27.90;21.30;;;2.60;99.90;;;;;;5055791;28;20499;-68
2022/12/12 10:23:49;;;;;;;30.23;21.80;;;2.60;99.90;;;;;;5055831;28;20464;-68
2022/12/12 10:26:17;;;;;;;26.63;18.80;;;2.80;99.90;;;;;;5055817;28;20381;-68
2022/12/12 10:28:43;;;;;;;25.83;19.97;;;2.80;99.90;;;;;;5055356;28;20520;-68
2022/12/12 10:31:35;;;;;;;26.20;20.33;;;2.80;99.90;;;;;;5037871;28;20987;-68
2022/12/12 10:34:01;;;;;;;23.50;19.43;;;2.80;99.90;;;;;;5052837;28;20833;-68
2022/12/12 10:36:38;;;;;;;21.47;17.30;;;2.60;99.90;;;;;;5055758;28;20401;-68
2022/12/12 10:39:28;;;;;;;24.00;18.50;;;2.80;99.90;;;;;;5055252;28;20213;-68
2022/12/12 10:41:57;;;;;;;22.47;17.50;;;2.80;99.90;;;;;;5055504;28;20412;-68
2022/12/12 10:44:34;;;;;;;29.07;20.90;;;3.00;99.90;;;;;;5055219;28;20413;-68
2022/12/12 10:47:05;;;;;;;28.80;19.67;;;3.10;99.90;;;;;;5055258;28;20389;-68
2022/12/12 10:49:31;;;;;;;23.73;18.10;;;3.20;99.90;;;;;;5054204;28;20484;-68
2022/12/12 10:51:59;;;;;;;24.73;18.83;;;3.30;99.90;;;;;;5036733;28;20490;-68
2022/12/12 10:54:27;;;;;;;27.20;18.93;;;3.40;99.90;;;;;;5055342;28;20413;-69
2022/12/12 10:57:18;;;;;;;24.13;18.67;;;3.80;99.90;;;;;;5055067;28;20447;-69
2022/12/12 10:59:47;;;;;;;25.87;19.83;;;4.20;99.90;;;;;;5054719;28;20737;-69
2022/12/12 11:02:43;;;;;;;24.10;19.53;;;4.80;99.90;;;;;;5054074;28;20429;-69
2022/12/12 11:05:14;;;;;;;24.77;19.17;;;5.50;99.90;;;;;;5045508;28;20758;-69
2022/12/12 11:07:43;;;;;;;27.37;21.03;;;6.10;99.90;;;;;;5054705;28;20509;-69
2022/12/12 11:10:26;;;;;;;22.80;17.87;;;7.20;99.90;;;;;;5054174;28;20449;-69
2022/12/12 11:13:17;;;;;;;23.80;18.13;;;7.90;99.10;;;;;;5023961;28;20413;-69
2022/12/12 11:16:06;;;;;;;19.67;16.10;;;9.40;96.90;;;;;;5039626;28;20409;-69
2022/12/12 11:18:31;;;;;;;19.47;15.23;;;10.40;92.80;;;;;;5043269;28;20421;-69
2022/12/12 11:21:12;;;;;;;21.33;16.97;;;10.40;92.00;;;;;;5038592;28;20926;-69
2022/12/12 11:23:42;;;;;;;27.97;17.37;;;11.30;90.80;;;;;;5016413;28;20179;-69
2022/12/12 11:26:14;;;;;;;20.50;18.27;;;11.70;85.70;;;;;;5033269;28;20445;-69
2022/12/12 11:28:42;;;;;;;20.03;17.00;;;11.60;85.40;;;;;;5020904;28;20587;-69
2022/12/12 11:31:11;;;;;;;19.10;16.20;;;11.70;84.90;;;;;;5054822;28;20475;-68
2022/12/12 11:33:43;;;;;;;20.20;16.43;;;12.90;82.40;;;;;;5053697;28;20456;-69
2022/12/12 11:36:15;;;;;;;19.40;15.80;;;11.80;77.80;;;;;;5054143;28;20388;-69
2022/12/12 11:38:50;;;;;;;17.37;13.80;;;11.80;78.70;;;;;;5054263;28;20430;-69
2022/12/12 11:41:16;;;;;;;16.87;14.13;;;12.70;76.40;;;;;;5036314;28;20398;-69
2022/12/12 11:43:48;;;;;;;15.83;13.20;;;13.00;73.60;;;;;;5054589;28;20401;-69
2022/12/12 11:46:13;;;;;;;17.20;15.33;;;13.80;72.70;;;;;;5054436;28;20493;-69
2022/12/12 11:48:51;;;;;;;15.67;12.57;;;14.50;67.80;;;;;;5035606;28;20462;-69
2022/12/12 11:51:37;;;;;;;16.40;13.47;;;13.00;68.00;;;;;;5054001;28;20183;-69
2022/12/12 11:54:17;;;;;;;13.50;11.90;;;12.30;70.20;;;;;;5054235;28;20397;-69
2022/12/12 11:57:02;;;;;;;21.87;13.80;;;13.30;67.30;;;;;;5054189;28;20387;-69
2022/12/12 11:59:39;;;;;;;12.20;10.90;;;13.70;67.10;;;;;;5053811;28;20515;-69
2022/12/12 12:02:32;;;;;;;15.50;12.00;;;14.50;64.70;;;;;;5053306;28;20789;-70
2022/12/12 12:05:22;;;;;;;14.50;11.73;;;15.30;61.90;;;;;;5053308;28;20839;-69
2022/12/12 12:08:18;;;;;;;11.47;10.20;;;16.50;59.00;;;;;;5053959;28;20423;-69
2022/12/12 12:11:22;;;;;;;16.27;11.33;;;16.90;55.30;;;;;;5035826;28;20452;-69
2022/12/12 12:14:13;;;;;;;15.27;11.70;;;17.10;54.60;;;;;;5054143;28;20391;-69
2022/12/12 12:17:00;;;;;;;14.47;12.60;;;17.00;54.50;;;;;;5053976;28;20395;-69
2022/12/12 12:19:42;;;;;;;17.37;14.20;;;17.00;54.20;;;;;;5053029;28;20416;-69
2022/12/12 12:22:57;;;;;;;14.20;12.70;;;17.60;53.70;;;;;;5053579;28;20417;-69
2022/12/12 12:25:33;;;;;;;13.63;12.23;;;15.10;54.00;;;;;;4982662;28;20429;-69
2022/12/12 12:28:20;;;;;;;11.80;10.57;;;14.20;55.50;;;;;;5053347;28;20443;-69
2022/12/12 12:31:02;;;;;;;12.53;11.17;;;13.30;57.10;;;;;;5053638;28;20442;-69
2022/12/12 12:33:48;;;;;;;20.73;16.37;;;11.60;58.70;;;;;;5052820;28;20417;-69
2022/12/12 12:36:32;;;;;;;21.00;15.70;;;9.60;65.70;;;;;;5046049;28;20756;-68
2022/12/12 12:39:40;;;;;;;24.27;17.10;;;7.50;73.50;;;;;;5042073;28;20424;-68
2022/12/12 12:42:17;;;;;;;22.17;18.40;;;6.40;80.60;;;;;;5035141;28;20933;-69
2022/12/12 12:45:04;;;;;;;18.47;16.57;;;5.80;85.10;;;;;;5042027;28;20394;-69
2022/12/12 12:48:21;;;;;;;30.27;17.80;;;5.20;89.80;;;;;;5043016;28;20399;-69
2022/12/12 12:50:53;;;;;;;22.73;17.20;;;4.70;91.70;;;;;;5000004;28;20462;-69
2022/12/12 12:53:21;;;;;;;20.63;16.93;;;4.50;92.90;;;;;;5033182;28;20410;-68
2022/12/12 12:55:52;;;;;;;26.43;17.10;;;4.40;94.20;;;;;;5033343;28;20782;-69
2022/12/12 12:58:23;;;;;;;25.70;17.47;;;4.30;94.90;;;;;;5033092;28;20505;-69
2022/12/12 13:01:01;;;;;;;22.00;16.03;;;4.10;95.90;;;;;;5033313;28;20386;-69
2022/12/12 13:03:33;;;;;;;20.50;16.43;;;4.20;96.20;;;;;;5034240;28;20507;-69
2022/12/12 13:06:03;;;;;;;20.47;16.50;;;4.20;96.00;;;;;;5035343;28;20406;-69
2022/12/12 13:08:56;;;;;;;20.67;15.60;;;3.80;96.80;;;;;;5053033;28;20496;-69
2022/12/12 13:11:32;;;;;;;23.03;15.70;;;3.80;98.00;;;;;;5035105;28;20487;-69